This is the latest recevied weather packets stored in our database for station/object E25WOP-13. If no packets are shown the sender has not sent any weather packets the latest 10 day(s).
| Time | Temp. | Humidity | Pressure | Rain* | Wind** | Luminosity | Snow |
|---|---|---|---|---|---|---|---|
| 1777533016 | 33.33° C | 65% | 1006.6 hPa | 0 mm | - | 518 W/m² | - |
| 1777532416 | 33.89° C | 64% | 1006.8 hPa | 0 mm | - | 781 W/m² | - |
| 1777531816 | 33.33° C | 65% | 1006.9 hPa | 0 mm | - | 1102 W/m² | - |
| 1777531216 | 33.89° C | 63% | 1007 hPa | 0 mm | - | 1139 W/m² | - |
| 1777530617 | 33.89° C | 61% | 1007.3 hPa | 0 mm | - | 1139 W/m² | - |
| 1777530016 | 33.33° C | 64% | 1007.2 hPa | 0 mm | - | 1141 W/m² | - |
| 1777529416 | 33.89° C | 63% | 1007.4 hPa | 0 mm | - | 1101 W/m² | - |
| 1777528816 | 33.89° C | 64% | 1007.5 hPa | 0 mm | - | 1101 W/m² | - |
| 1777528216 | 33.89° C | 61% | 1007.7 hPa | 0 mm | - | 1141 W/m² | - |
| 1777527616 | 34.44° C | 58% | 1008.1 hPa | 0 mm | - | 1143 W/m² | - |
| 1777527016 | 33.33° C | 63% | 1008.5 hPa | 0 mm | - | 1144 W/m² | - |
| 1777526416 | 33.89° C | 62% | 1008.7 hPa | 0 mm | - | 1145 W/m² | - |
| 1777525816 | 33.33° C | 63% | 1009 hPa | 0 mm | - | 1147 W/m² | - |
| 1777525221 | 32.78° C | 68% | 1009.1 hPa | 0 mm | - | 1145 W/m² | - |
| 1777524622 | 32.78° C | 69% | 1009.3 hPa | 0 mm | - | 968 W/m² | - |
| 1777524021 | 33.33° C | 67% | 1009.2 hPa | 0 mm | - | 1147 W/m² | - |
| 1777523421 | 34.44° C | 60% | 1009.4 hPa | 0 mm | - | 1141 W/m² | - |
| 1777522821 | 35° C | 61% | 1009.4 hPa | 0 mm | - | 1143 W/m² | - |
| 1777522221 | 34.44° C | 60% | 1009.2 hPa | 0 mm | - | 1103 W/m² | - |
| 1777521621 | 33.89° C | 60% | 1009.3 hPa | 0 mm | - | 976 W/m² | - |
| 1777521021 | 33.33° C | 64% | 1009.8 hPa | 0 mm | - | 477 W/m² | - |
| 1777520421 | 33.33° C | 63% | 1009.7 hPa | 0 mm | - | 1138 W/m² | - |
| 1777519821 | 33.89° C | 66% | 1009.7 hPa | 0 mm | - | 1136 W/m² | - |
| 1777519221 | 32.78° C | 66% | 1009.6 hPa | 0 mm | - | 930 W/m² | - |
| 1777518621 | 32.78° C | 70% | 1009.9 hPa | 0 mm | - | 318 W/m² | - |
* Rain latest hour (hover to see other rain measurements)
** Current wind speed in m/s (hover to see current wind gust speed)